Time;durP1;ratioP1;P1;durP2;ratioP2;P2;SDS_P1;SDS_P2;PMS_P1;PMS_P2;Temp;Humidity;BMP_temperature;BMP_pressure;BME280_temperature;BME280_humidity;BME280_pressure;Samples;Min_cycle;Max_cycle;Signal;HPM_P1;HPM_P2
2021/07/31 01:04:34;;;;;;;0.00;0.00;;;;;;;;;;5067941;28;20042;-63
2021/07/31 07:02:43;;;;;;;0.00;0.00;;;;;;;;;;5039865;28;20120;-68
2021/07/31 07:05:08;;;;;;;0.00;0.00;;;;;;;;;;5061644;28;20024;-67
2021/07/31 07:07:34;;;;;;;0.00;0.00;;;;;;;;;;5044625;28;20020;-68
2021/07/31 07:09:59;;;;;;;0.00;0.00;;;;;;;;;;5063822;28;20020;-67
2021/07/31 07:12:24;;;;;;;0.00;0.00;;;;;;;;;;5063898;28;20036;-67
2021/07/31 07:14:49;;;;;;;0.00;0.00;;;;;;;;;;5057363;28;20104;-68
2021/07/31 07:17:14;;;;;;;0.17;0.10;;;;;;;;;;5055877;28;20028;-67
2021/07/31 07:19:42;;;;;;;0.00;0.00;;;;;;;;;;5061066;28;20012;-67
2021/07/31 07:22:07;;;;;;;0.00;0.00;;;;;;;;;;5063034;28;20095;-67
2021/07/31 13:02:37;;;;;;;0.00;0.00;;;;;;;;;;5032598;28;20433;-65
2021/07/31 13:05:02;;;;;;;0.00;0.00;;;;;;;;;;5049215;28;20049;-65
2021/07/31 13:07:28;;;;;;;0.00;0.00;;;;;;;;;;5049238;28;20099;-65
2021/07/31 13:09:53;;;;;;;0.00;0.00;;;;;;;;;;5050123;28;20029;-65
2021/07/31 13:12:18;;;;;;;0.00;0.00;;;;;;;;;;5052107;28;20328;-65
2021/07/31 13:14:43;;;;;;;0.00;0.00;;;;;;;;;;5048346;28;20803;-65
2021/07/31 15:29:11;;;;;;;0.00;0.00;;;;;;;;;;5033043;28;20096;-62
2021/07/31 15:31:36;;;;;;;0.00;0.00;;;;;;;;;;5062108;28;20024;-62
2021/07/31 15:34:02;;;;;;;0.00;0.00;;;;;;;;;;5063818;28;20096;-62
2021/07/31 15:36:27;;;;;;;0.00;0.00;;;;;;;;;;5064023;28;20012;-64
2021/07/31 15:38:52;;;;;;;0.00;0.00;;;;;;;;;;5064501;28;20814;-65
2021/07/31 15:41:17;;;;;;;0.00;0.00;;;;;;;;;;5058243;28;20260;-64
2021/07/31 15:43:42;;;;;;;0.00;0.00;;;;;;;;;;5059167;28;20024;-62
2021/07/31 15:46:07;;;;;;;0.00;0.00;;;;;;;;;;5056907;28;20286;-63
2021/07/31 15:51:40;;;;;;;0.00;0.00;;;;;;;;;;5063137;28;20020;-62
2021/07/31 15:54:05;;;;;;;0.00;0.00;;;;;;;;;;5058890;28;20029;-62
2021/07/31 15:56:30;;;;;;;0.00;0.00;;;;;;;;;;5069093;28;20017;-62
2021/07/31 16:02:01;;;;;;;0.00;0.00;;;;;;;;;;5049862;28;20024;-63
2021/07/31 16:04:26;;;;;;;0.00;0.00;;;;;;;;;;5052417;28;20436;-63
2021/07/31 16:09:54;;;;;;;0.00;0.00;;;;;;;;;;5065192;28;20611;-64
2021/07/31 16:12:19;;;;;;;0.00;0.00;;;;;;;;;;5053735;28;20029;-63
2021/07/31 16:14:45;;;;;;;0.00;0.00;;;;;;;;;;5054180;28;20025;-64
2021/07/31 16:20:15;;;;;;;0.00;0.00;;;;;;;;;;5061596;28;20386;-63
2021/07/31 16:51:33;;;;;;;0.00;0.00;;;;;;;;;;5057453;28;20036;-62
2021/07/31 16:53:58;;;;;;;0.00;0.00;;;;;;;;;;5053700;28;20033;-62
2021/07/31 16:56:24;;;;;;;0.00;0.00;;;;;;;;;;5034372;28;20282;-62
2021/07/31 16:58:49;;;;;;;0.00;0.00;;;;;;;;;;5050103;28;20032;-63
2021/07/31 17:07:25;;;;;;;0.00;0.00;;;;;;;;;;5052404;28;20432;-63
2021/07/31 17:09:50;;;;;;;0.00;0.00;;;;;;;;;;5051756;28;20433;-63
2021/07/31 17:15:18;;;;;;;0.00;0.00;;;;;;;;;;5054801;28;20080;-63
2021/07/31 17:17:43;;;;;;;0.00;0.00;;;;;;;;;;5049034;28;20021;-63
2021/07/31 17:26:14;;;;;;;0.00;0.00;;;;;;;;;;5050463;28;20027;-62
2021/07/31 17:31:42;;;;;;;0.00;0.00;;;;;;;;;;5060350;28;20234;-63
2021/07/31 17:34:07;;;;;;;0.00;0.00;;;;;;;;;;5067132;28;20416;-63
2021/07/31 17:39:37;;;;;;;0.00;0.00;;;;;;;;;;5052102;28;20487;-62
2021/07/31 17:45:06;;;;;;;0.00;0.00;;;;;;;;;;5056134;28;20103;-63
2021/07/31 17:47:32;;;;;;;0.00;0.00;;;;;;;;;;5061211;28;20051;-64
2021/07/31 17:50:00;;;;;;;0.00;0.00;;;;;;;;;;5040125;28;20121;-64
2021/07/31 17:55:28;;;;;;;0.00;0.00;;;;;;;;;;5066968;28;20019;-64
2021/07/31 17:57:53;;;;;;;0.00;0.00;;;;;;;;;;5036290;28;20021;-65
2021/07/31 18:03:21;;;;;;;0.00;0.00;;;;;;;;;;5049494;28;20096;-64
2021/07/31 18:05:46;;;;;;;0.00;0.00;;;;;;;;;;5063589;28;20111;-63
2021/07/31 18:08:11;;;;;;;0.00;0.00;;;;;;;;;;5067760;28;20078;-64
2021/07/31 18:16:45;;;;;;;0.00;0.00;;;;;;;;;;5065473;28;20062;-64
2021/07/31 18:22:15;;;;;;;0.00;0.00;;;;;;;;;;5053328;28;20039;-64
2021/07/31 18:24:40;;;;;;;0.00;0.00;;;;;;;;;;5050960;28;20099;-64
2021/07/31 18:27:05;;;;;;;0.00;0.00;;;;;;;;;;5046917;28;20154;-64
2021/07/31 18:29:31;;;;;;;0.00;0.00;;;;;;;;;;5032476;28;20060;-64
2021/07/31 18:31:56;;;;;;;0.00;0.00;;;;;;;;;;5055665;28;21654;-64
2021/07/31 18:34:21;;;;;;;0.00;0.00;;;;;;;;;;5049750;28;20036;-63
2021/07/31 18:36:46;;;;;;;0.00;0.00;;;;;;;;;;5049149;28;20107;-63
2021/07/31 18:39:11;;;;;;;0.00;0.00;;;;;;;;;;5066854;28;20316;-63
2021/07/31 18:44:40;;;;;;;0.00;0.00;;;;;;;;;;5049283;28;20274;-64
2021/07/31 18:47:05;;;;;;;0.00;0.00;;;;;;;;;;5034288;28;20040;-64
2021/07/31 18:52:45;;;;;;;0.00;0.00;;;;;;;;;;5034729;28;20162;-64
2021/07/31 18:58:14;;;;;;;0.00;0.00;;;;;;;;;;5052792;28;20032;-64
2021/07/31 19:00:39;;;;;;;0.00;0.00;;;;;;;;;;5065491;28;20411;-64
2021/07/31 19:06:07;;;;;;;0.00;0.00;;;;;;;;;;5054987;28;20609;-64
2021/07/31 19:08:34;;;;;;;0.00;0.00;;;;;;;;;;5048127;28;20020;-63
2021/07/31 19:10:59;;;;;;;0.00;0.00;;;;;;;;;;5055621;28;20662;-63
2021/07/31 19:16:27;;;;;;;0.00;0.00;;;;;;;;;;5056923;28;20499;-64
2021/07/31 19:18:53;;;;;;;0.00;0.00;;;;;;;;;;5061314;28;20029;-65
2021/07/31 19:30:26;;;;;;;0.00;0.00;;;;;;;;;;5052668;28;20374;-65
2021/07/31 19:32:52;;;;;;;0.00;0.00;;;;;;;;;;5058626;28;20025;-64
2021/07/31 19:35:17;;;;;;;0.00;0.00;;;;;;;;;;5062260;28;20306;-65
2021/07/31 19:37:42;;;;;;;0.00;0.00;;;;;;;;;;5048473;28;20035;-65
2021/07/31 19:40:08;;;;;;;0.00;0.00;;;;;;;;;;5053409;28;20070;-72
2021/07/31 19:42:33;;;;;;;0.00;0.00;;;;;;;;;;5055913;28;20024;-72
2021/07/31 19:44:59;;;;;;;0.00;0.00;;;;;;;;;;5062331;28;20077;-73
2021/07/31 19:47:26;;;;;;;0.00;0.00;;;;;;;;;;5061846;28;20093;-64
2021/07/31 19:49:53;;;;;;;0.00;0.00;;;;;;;;;;5066932;28;20016;-64
2021/07/31 19:52:19;;;;;;;0.00;0.00;;;;;;;;;;5058034;28;20037;-67
2021/07/31 19:54:44;;;;;;;0.00;0.00;;;;;;;;;;5058915;28;20021;-67
2021/07/31 19:57:09;;;;;;;0.00;0.00;;;;;;;;;;5059579;28;20157;-68
2021/07/31 20:27:28;;;;;;;0.00;0.00;;;;;;;;;;5064299;28;20027;-68
2021/07/31 20:29:53;;;;;;;0.00;0.00;;;;;;;;;;5060570;28;20021;-68
2021/07/31 20:32:18;;;;;;;0.00;0.00;;;;;;;;;;5048150;28;20024;-68
2021/07/31 20:34:43;;;;;;;0.00;0.00;;;;;;;;;;5060387;28;20461;-68
2021/07/31 20:37:09;;;;;;;0.00;0.00;;;;;;;;;;5063986;28;20298;-68
2021/07/31 20:39:38;;;;;;;0.00;0.00;;;;;;;;;;5061283;28;20103;-68
2021/07/31 20:45:07;;;;;;;0.00;0.00;;;;;;;;;;5058343;28;20023;-68
